Time;durP1;ratioP1;P1;durP2;ratioP2;P2;SDS_P1;SDS_P2;PMS_P1;PMS_P2;Temp;Humidity;BMP_temperature;BMP_pressure;BME280_temperature;BME280_humidity;BME280_pressure;Samples;Min_cycle;Max_cycle;Signal;HPM_P1;HPM_P2
2022/04/04 00:15:50;;;;;;;16.20;12.57;;;4.00;99.90;;;;;;6111677;29;20484;-63
2022/04/04 00:18:53;;;;;;;16.67;13.80;;;3.80;99.90;;;;;;6238934;28;20470;-63
2022/04/04 00:21:57;;;;;;;14.97;12.63;;;3.80;99.90;;;;;;6277603;28;20484;-66
2022/04/04 00:25:00;;;;;;;15.27;13.67;;;3.90;99.90;;;;;;6277848;28;20470;-66
2022/04/04 00:28:04;;;;;;;15.37;13.80;;;3.80;99.90;;;;;;6277738;28;20979;-65
2022/04/04 00:31:08;;;;;;;18.27;13.87;;;3.80;99.90;;;;;;6277560;28;20473;-63
2022/04/04 00:34:11;;;;;;;14.90;13.00;;;4.00;99.90;;;;;;6282319;28;20563;-63
2022/04/04 00:37:14;;;;;;;15.13;13.27;;;4.00;99.90;;;;;;6278350;28;20477;-63
2022/04/04 00:40:18;;;;;;;15.60;13.07;;;4.10;99.90;;;;;;6277883;28;20979;-63
2022/04/04 00:43:21;;;;;;;15.17;13.67;;;4.10;99.90;;;;;;6277985;28;20477;-63
2022/04/04 00:46:26;;;;;;;15.60;14.00;;;4.10;99.90;;;;;;6277675;28;20466;-62
2022/04/04 00:49:30;;;;;;;14.67;13.17;;;4.20;99.90;;;;;;6276994;28;20638;-62
2022/04/04 00:52:33;;;;;;;16.60;14.20;;;4.10;99.90;;;;;;6276933;28;20500;-62
2022/04/04 00:55:36;;;;;;;19.70;14.10;;;3.80;99.90;;;;;;6276973;28;20474;-62
2022/04/04 00:58:40;;;;;;;18.33;15.50;;;3.80;99.90;;;;;;6276794;28;20476;-65
2022/04/04 01:01:44;;;;;;;14.37;12.87;;;3.80;99.90;;;;;;6276546;28;20477;-65
2022/04/04 01:04:48;;;;;;;18.13;14.90;;;3.80;99.90;;;;;;6276691;28;20478;-65
2022/04/04 01:07:51;;;;;;;13.83;12.47;;;3.70;99.90;;;;;;6276677;28;20956;-65
2022/04/04 01:10:54;;;;;;;15.30;13.70;;;3.30;99.90;;;;;;6276485;28;20474;-65
2022/04/04 01:13:57;;;;;;;16.70;14.73;;;3.40;99.90;;;;;;6276239;28;20479;-66
2022/04/04 01:17:02;;;;;;;15.70;14.00;;;3.40;99.90;;;;;;6275796;28;20798;-66
2022/04/04 01:20:06;;;;;;;16.60;14.90;;;3.50;99.90;;;;;;6276828;28;20482;-64
2022/04/04 01:23:13;;;;;;;15.43;13.73;;;3.50;99.90;;;;;;6276342;28;20480;-63
2022/04/04 01:26:20;;;;;;;16.03;14.10;;;3.60;99.90;;;;;;6276369;28;20472;-63
2022/04/04 01:29:23;;;;;;;16.63;14.83;;;3.60;99.90;;;;;;6271528;28;20429;-63
2022/04/04 01:32:26;;;;;;;17.87;14.43;;;3.70;99.90;;;;;;6275781;28;20479;-63
2022/04/04 01:35:29;;;;;;;20.20;15.83;;;3.70;99.90;;;;;;6276122;28;20462;-65
2022/04/04 01:38:32;;;;;;;16.73;14.80;;;3.70;99.90;;;;;;6275940;28;20448;-65
2022/04/04 01:41:37;;;;;;;17.23;15.47;;;3.70;99.90;;;;;;6276036;28;20468;-64
2022/04/04 01:44:40;;;;;;;16.17;14.57;;;3.70;99.90;;;;;;6275840;28;20487;-64
2022/04/04 01:47:43;;;;;;;18.97;15.23;;;3.70;99.90;;;;;;6275578;28;20479;-64
2022/04/04 01:50:46;;;;;;;17.10;14.40;;;3.60;99.90;;;;;;6275930;28;20472;-64
2022/04/04 01:53:50;;;;;;;17.20;14.60;;;3.60;99.90;;;;;;6275351;28;20965;-65
2022/04/04 01:56:55;;;;;;;20.23;15.53;;;3.60;99.90;;;;;;6275289;28;20972;-64
2022/04/04 01:59:58;;;;;;;15.47;13.87;;;3.70;99.90;;;;;;6276526;28;20480;-65
2022/04/04 02:03:01;;;;;;;14.37;12.97;;;3.50;99.90;;;;;;6282013;28;20467;-63
2022/04/04 02:06:05;;;;;;;17.67;13.97;;;3.30;99.90;;;;;;6279013;28;20574;-63
2022/04/04 02:09:08;;;;;;;14.23;12.60;;;3.30;99.90;;;;;;6277471;28;20479;-64
2022/04/04 02:12:13;;;;;;;14.80;13.20;;;3.00;99.90;;;;;;6275507;28;20470;-65
2022/04/04 02:15:16;;;;;;;15.73;14.00;;;3.00;99.90;;;;;;6275215;28;20489;-65
2022/04/04 02:18:20;;;;;;;15.43;13.93;;;2.90;99.90;;;;;;6275308;28;20468;-63
2022/04/04 02:21:23;;;;;;;16.10;14.40;;;2.80;99.90;;;;;;6275059;28;20489;-63
2022/04/04 02:24:26;;;;;;;13.27;11.87;;;2.80;99.90;;;;;;6275011;28;20484;-65
2022/04/04 02:27:31;;;;;;;14.07;12.60;;;2.80;99.90;;;;;;6274815;28;20831;-65
2022/04/04 02:30:34;;;;;;;16.43;13.50;;;2.80;99.90;;;;;;6274540;28;20475;-66
2022/04/04 02:33:37;;;;;;;13.70;12.27;;;2.90;99.90;;;;;;6274613;28;20488;-66
2022/04/04 02:36:40;;;;;;;15.33;13.73;;;2.90;99.90;;;;;;6270473;28;20483;-66
2022/04/04 02:39:43;;;;;;;21.60;13.60;;;3.00;99.90;;;;;;6274877;28;20971;-64
2022/04/04 02:42:48;;;;;;;14.30;12.90;;;2.90;99.90;;;;;;6274396;28;20971;-64
2022/04/04 02:45:51;;;;;;;14.47;13.13;;;2.90;99.90;;;;;;6274842;28;20490;-64
2022/04/04 02:48:54;;;;;;;16.20;13.50;;;2.90;99.90;;;;;;6274477;28;20826;-64
2022/04/04 02:51:57;;;;;;;20.70;13.70;;;3.00;99.90;;;;;;6274530;28;20469;-64
2022/04/04 02:56:28;;;;;;;15.53;13.93;;;3.00;99.90;;;;;;6274609;28;20471;-64
2022/04/04 02:58:25;;;;;;;16.77;11.93;;;3.10;99.90;;;;;;6274635;28;20960;-64
2022/04/04 03:01:28;;;;;;;15.13;12.70;;;3.20;99.90;;;;;;6274193;28;20476;-64
2022/04/04 03:04:31;;;;;;;14.90;13.40;;;3.20;99.90;;;;;;6274185;28;20512;-64
2022/04/04 03:07:34;;;;;;;17.50;14.50;;;3.20;99.90;;;;;;6274336;28;20483;-64
2022/04/04 03:10:38;;;;;;;14.57;13.17;;;3.20;99.90;;;;;;6274098;28;20473;-63
2022/04/04 03:13:43;;;;;;;14.13;12.77;;;3.10;99.90;;;;;;6274181;28;20487;-63
2022/04/04 03:16:46;;;;;;;17.53;14.40;;;3.20;99.90;;;;;;6274345;28;20482;-63
2022/04/04 03:19:49;;;;;;;14.87;13.30;;;3.30;99.90;;;;;;6274343;28;20480;-63
2022/04/04 03:22:55;;;;;;;16.07;14.17;;;3.30;99.90;;;;;;6273892;28;20485;-62
2022/04/04 03:25:58;;;;;;;15.87;13.30;;;3.30;99.90;;;;;;6273973;28;20929;-67
2022/04/04 03:29:03;;;;;;;15.37;13.77;;;3.30;99.90;;;;;;6274537;28;20490;-63
2022/04/04 03:32:07;;;;;;;15.70;14.00;;;3.30;99.90;;;;;;6274306;28;20808;-63
2022/04/04 03:35:11;;;;;;;16.20;14.50;;;3.30;99.90;;;;;;6274290;28;20484;-63
2022/04/04 03:38:14;;;;;;;14.57;13.13;;;3.30;99.90;;;;;;6274638;28;20944;-63
2022/04/04 03:41:17;;;;;;;15.87;14.27;;;3.40;99.90;;;;;;6277425;28;20467;-63
2022/04/04 03:44:22;;;;;;;15.80;13.60;;;3.40;99.90;;;;;;6278301;28;20502;-63
2022/04/04 03:47:25;;;;;;;15.93;14.33;;;3.40;99.90;;;;;;6278914;28;20440;-63
2022/04/04 03:50:29;;;;;;;14.03;12.53;;;3.40;99.90;;;;;;6278257;28;20779;-63
2022/04/04 03:53:32;;;;;;;14.40;12.90;;;3.40;99.90;;;;;;6278460;28;20466;-63
2022/04/04 03:56:35;;;;;;;13.70;12.27;;;3.40;99.90;;;;;;6278770;28;20469;-63
2022/04/04 03:59:42;;;;;;;14.63;13.20;;;3.40;99.90;;;;;;6278989;28;20475;-64
2022/04/04 04:02:45;;;;;;;15.67;13.97;;;3.50;99.90;;;;;;6301992;28;20781;-64
2022/04/04 04:05:48;;;;;;;15.90;14.17;;;3.50;99.90;;;;;;6327984;28;20499;-64
2022/04/04 04:08:51;;;;;;;15.37;13.90;;;3.50;99.90;;;;;;6328255;28;20472;-64
2022/04/04 04:11:56;;;;;;;13.80;12.13;;;3.40;99.90;;;;;;6327501;28;20481;-65
2022/04/04 04:15:01;;;;;;;14.70;13.20;;;3.30;99.90;;;;;;6322173;28;20483;-65
2022/04/04 04:18:04;;;;;;;17.90;14.43;;;3.20;99.90;;;;;;6302996;28;20481;-65
2022/04/04 04:21:09;;;;;;;14.77;13.13;;;3.10;99.90;;;;;;6303103;28;20479;-65
2022/04/04 04:24:16;;;;;;;14.00;12.57;;;3.20;99.90;;;;;;6302496;28;20492;-65
2022/04/04 04:27:20;;;;;;;16.83;13.67;;;3.20;99.90;;;;;;6302711;28;20506;-65
2022/04/04 04:30:24;;;;;;;15.77;14.10;;;3.10;99.90;;;;;;6303192;28;20476;-65
2022/04/04 04:33:27;;;;;;;14.77;13.23;;;3.10;99.90;;;;;;6303557;28;20484;-63
2022/04/04 04:36:30;;;;;;;17.43;15.40;;;3.10;99.90;;;;;;6302712;28;20472;-63
2022/04/04 04:39:34;;;;;;;17.40;15.70;;;3.10;99.90;;;;;;6302475;28;20483;-63
2022/04/04 04:42:37;;;;;;;15.73;13.37;;;3.10;99.90;;;;;;6297480;28;20483;-64
2022/04/04 04:45:42;;;;;;;16.37;13.67;;;3.10;99.90;;;;;;6302034;28;20494;-64
2022/04/04 04:48:45;;;;;;;17.03;14.20;;;3.20;99.90;;;;;;6302089;28;20831;-63
2022/04/04 04:51:48;;;;;;;16.60;14.27;;;3.30;99.90;;;;;;6301645;28;20476;-63
2022/04/04 04:54:51;;;;;;;16.43;14.67;;;3.20;99.90;;;;;;6303387;28;20468;-62
2022/04/04 04:57:55;;;;;;;15.33;13.83;;;3.20;99.90;;;;;;6302040;28;20471;-65
2022/04/04 05:01:00;;;;;;;21.63;17.00;;;3.20;99.90;;;;;;6301175;28;20470;-65
2022/04/04 05:04:03;;;;;;;17.80;15.90;;;3.20;99.90;;;;;;6300350;28;20856;-65
2022/04/04 05:07:07;;;;;;;15.87;14.37;;;3.30;99.90;;;;;;6301582;28;20481;-65
2022/04/04 05:10:13;;;;;;;14.40;12.97;;;3.40;99.90;;;;;;6300269;28;20854;-65
2022/04/04 05:13:18;;;;;;;15.80;14.10;;;3.50;99.90;;;;;;6300921;28;20477;-65
2022/04/04 05:16:28;;;;;;;15.00;13.13;;;3.50;99.90;;;;;;6302599;28;20488;-65
2022/04/04 05:19:32;;;;;;;15.57;13.97;;;3.60;99.90;;;;;;6304349;28;21066;-65
2022/04/04 05:22:35;;;;;;;14.77;12.90;;;3.60;99.90;;;;;;6303694;28;20471;-65
2022/04/04 05:25:38;;;;;;;16.13;14.43;;;3.60;99.90;;;;;;6304218;28;20503;-65
2022/04/04 05:28:41;;;;;;;15.70;14.03;;;3.70;99.90;;;;;;6301317;28;20467;-65
2022/04/04 05:31:46;;;;;;;13.83;12.47;;;3.70;99.90;;;;;;6300262;28;20480;-65
2022/04/04 05:34:49;;;;;;;14.60;13.10;;;3.60;99.90;;;;;;6300519;28;20469;-64
2022/04/04 05:37:54;;;;;;;14.43;12.93;;;3.50;99.90;;;;;;6300475;28;20497;-65
2022/04/04 05:40:58;;;;;;;15.13;13.27;;;3.60;99.90;;;;;;6299046;28;20513;-65
2022/04/04 05:44:01;;;;;;;17.20;12.60;;;3.80;99.90;;;;;;6298724;28;20811;-65
2022/04/04 05:47:07;;;;;;;15.70;14.03;;;3.80;99.90;;;;;;6298778;28;20814;-65
2022/04/04 05:50:11;;;;;;;15.63;13.93;;;3.90;99.90;;;;;;6289352;28;20487;-65
2022/04/04 05:53:14;;;;;;;14.20;12.77;;;3.90;99.90;;;;;;6298389;28;20824;-64
2022/04/04 05:56:17;;;;;;;14.63;12.10;;;4.00;99.90;;;;;;6299862;28;20790;-64
2022/04/04 05:59:20;;;;;;;17.50;14.83;;;4.10;99.90;;;;;;6299876;28;20778;-66
2022/04/04 06:02:26;;;;;;;14.50;13.00;;;4.10;99.90;;;;;;6299523;28;20472;-65
2022/04/04 06:05:30;;;;;;;15.00;13.53;;;4.10;99.90;;;;;;6299234;28;20947;-64
2022/04/04 06:08:33;;;;;;;15.50;13.37;;;4.20;99.90;;;;;;6300018;28;20439;-64
2022/04/04 06:11:36;;;;;;;15.10;11.20;;;4.30;99.90;;;;;;6300459;28;20892;-64
2022/04/04 06:14:40;;;;;;;15.00;11.33;;;4.30;99.90;;;;;;6299685;28;20471;-65
2022/04/04 06:17:45;;;;;;;10.03;9.03;;;4.30;99.90;;;;;;6299389;28;20808;-65
2022/04/04 06:20:48;;;;;;;12.10;10.87;;;4.20;99.90;;;;;;6300300;28;20481;-64
2022/04/04 06:23:51;;;;;;;12.27;11.17;;;4.00;99.70;;;;;;6299350;28;20471;-64
2022/04/04 06:26:54;;;;;;;11.23;10.13;;;4.00;99.90;;;;;;6299706;28;20466;-64
2022/04/04 06:29:58;;;;;;;12.60;10.67;;;4.10;99.90;;;;;;6299882;28;20471;-64
2022/04/04 06:33:04;;;;;;;11.80;10.30;;;4.00;99.50;;;;;;6299870;28;20487;-65
2022/04/04 06:36:08;;;;;;;11.77;10.57;;;4.00;99.90;;;;;;6299788;28;20800;-65
2022/04/04 06:39:11;;;;;;;13.67;10.77;;;4.00;99.30;;;;;;6299909;28;20468;-65
2022/04/04 06:42:14;;;;;;;11.50;10.50;;;4.00;99.40;;;;;;6300058;28;20484;-65
2022/04/04 06:45:18;;;;;;;13.17;10.07;;;4.00;99.90;;;;;;6299883;28;20479;-65
2022/04/04 06:48:23;;;;;;;11.43;10.33;;;4.10;99.90;;;;;;6299734;28;20492;-65
2022/04/04 06:51:27;;;;;;;11.80;10.63;;;4.10;99.90;;;;;;6295154;28;20480;-65
2022/04/04 06:54:30;;;;;;;12.80;11.50;;;4.20;99.90;;;;;;6299558;28;20480;-65
2022/04/04 06:57:33;;;;;;;14.17;12.87;;;4.30;99.80;;;;;;6299715;28;20491;-65
2022/04/04 07:00:37;;;;;;;11.07;10.07;;;4.50;99.70;;;;;;6299311;28;20539;-64
2022/04/04 07:03:41;;;;;;;14.47;10.37;;;4.40;99.20;;;;;;6298773;28;20977;-64
2022/04/04 07:06:44;;;;;;;12.20;10.03;;;4.40;98.90;;;;;;6299620;28;20468;-64
2022/04/04 07:09:48;;;;;;;11.00;10.00;;;4.50;99.50;;;;;;6299941;28;20476;-65
2022/04/04 07:12:51;;;;;;;11.60;9.83;;;4.50;98.20;;;;;;6299225;28;20483;-65
2022/04/04 07:15:54;;;;;;;10.87;9.77;;;4.70;98.50;;;;;;6302060;28;20472;-66
2022/04/04 07:18:58;;;;;;;12.03;9.67;;;4.70;98.10;;;;;;6304306;28;20472;-66
2022/04/04 07:22:02;;;;;;;12.27;10.97;;;5.00;98.00;;;;;;6304511;28;20486;-66
2022/04/04 07:25:07;;;;;;;10.80;9.70;;;5.20;97.60;;;;;;6305974;28;20476;-65
2022/04/04 07:28:11;;;;;;;11.60;10.37;;;5.30;96.70;;;;;;6306795;28;20559;-65
2022/04/04 07:31:15;;;;;;;11.20;10.20;;;5.30;95.80;;;;;;6304811;28;20480;-65
2022/04/04 07:34:20;;;;;;;11.37;10.27;;;5.00;96.00;;;;;;6303929;28;20614;-65
2022/04/04 07:37:23;;;;;;;10.60;9.50;;;5.00;97.30;;;;;;6309028;28;20468;-65
2022/04/04 07:40:27;;;;;;;10.77;9.73;;;5.30;96.80;;;;;;6316867;28;20798;-65
2022/04/04 07:43:30;;;;;;;12.23;10.90;;;5.60;96.30;;;;;;6300606;28;20484;-64
2022/04/04 07:46:33;;;;;;;12.40;11.03;;;5.70;95.20;;;;;;6278410;28;20484;-64
2022/04/04 07:49:38;;;;;;;12.00;10.77;;;5.90;95.30;;;;;;6278053;28;20473;-64
2022/04/04 07:52:41;;;;;;;10.50;9.50;;;6.10;95.50;;;;;;6287421;28;20796;-64
2022/04/04 07:55:45;;;;;;;13.33;9.50;;;6.00;94.40;;;;;;6302954;28;20770;-65
2022/04/04 07:58:48;;;;;;;11.63;10.43;;;6.20;94.50;;;;;;6303112;28;20479;-65
2022/04/04 08:01:51;;;;;;;11.03;9.57;;;6.10;94.40;;;;;;6302808;28;20491;-65
2022/04/04 08:04:56;;;;;;;10.40;9.43;;;6.30;94.90;;;;;;6302735;28;20507;-65
2022/04/04 08:07:59;;;;;;;11.33;10.23;;;6.20;94.00;;;;;;6303106;28;20484;-65
2022/04/04 08:11:03;;;;;;;10.30;9.20;;;6.20;93.30;;;;;;6282805;28;20481;-65
2022/04/04 08:14:08;;;;;;;12.07;10.87;;;6.10;93.50;;;;;;6277830;28;20474;-64
2022/04/04 08:17:11;;;;;;;10.30;9.27;;;5.90;93.20;;;;;;6277407;28;20469;-65
2022/04/04 08:20:17;;;;;;;10.60;9.50;;;6.00;93.60;;;;;;6287271;28;20485;-67
2022/04/04 08:23:20;;;;;;;9.67;8.77;;;6.20;92.50;;;;;;6318986;28;20952;-66
2022/04/04 08:26:24;;;;;;;11.30;10.03;;;6.60;92.60;;;;;;6301602;28;20556;-66
2022/04/04 08:29:28;;;;;;;11.03;10.03;;;6.90;91.30;;;;;;6316295;28;20444;-66
2022/04/04 08:32:31;;;;;;;10.90;9.93;;;7.20;91.30;;;;;;6327953;28;20552;-66
2022/04/04 08:35:36;;;;;;;13.23;9.10;;;7.30;90.70;;;;;;6321700;28;20452;-64
2022/04/04 08:38:40;;;;;;;9.70;8.80;;;7.50;90.10;;;;;;6323040;28;20456;-66
2022/04/04 08:41:43;;;;;;;10.77;8.90;;;7.90;88.50;;;;;;6327117;28;21229;-66
2022/04/04 08:44:49;;;;;;;10.87;9.87;;;8.10;87.50;;;;;;6309888;28;20476;-65
2022/04/04 08:47:52;;;;;;;11.57;10.47;;;8.10;87.00;;;;;;6301662;28;20470;-65
2022/04/04 08:50:57;;;;;;;11.10;10.00;;;7.80;87.30;;;;;;6301510;28;20480;-64
2022/04/04 08:54:00;;;;;;;9.73;8.73;;;7.60;87.80;;;;;;6307799;28;20473;-65
2022/04/04 08:57:04;;;;;;;11.23;10.13;;;7.60;88.40;;;;;;6309071;28;20472;-65
2022/04/04 09:00:10;;;;;;;12.47;10.57;;;7.40;87.80;;;;;;6322099;28;20495;-66
2022/04/04 09:03:21;;;;;;;11.40;10.20;;;7.50;89.70;;;;;;6326564;28;20806;-67
2022/04/04 09:06:28;;;;;;;12.17;11.03;;;7.60;88.30;;;;;;6326662;28;20578;-64
2022/04/04 09:09:39;;;;;;;10.70;9.70;;;7.50;88.50;;;;;;6322099;28;20469;-68
2022/04/04 09:12:42;;;;;;;11.30;10.10;;;8.50;88.30;;;;;;6301592;28;20586;-66
2022/04/04 09:15:53;;;;;;;10.43;9.53;;;10.30;80.00;;;;;;6300779;28;20469;-66
2022/04/04 09:18:57;;;;;;;11.47;10.37;;;11.30;73.80;;;;;;6301016;28;20542;-64
2022/04/04 09:22:06;;;;;;;11.27;10.07;;;10.50;73.40;;;;;;6301056;28;20469;-66
2022/04/04 09:25:09;;;;;;;11.40;10.20;;;10.20;74.80;;;;;;6301516;28;20489;-68
2022/04/04 09:28:16;;;;;;;13.23;9.83;;;9.90;75.50;;;;;;6303659;28;20482;-68
2022/04/04 09:31:19;;;;;;;11.20;10.13;;;9.60;75.90;;;;;;6300882;28;20469;-67
2022/04/04 09:34:23;;;;;;;14.67;13.17;;;9.40;75.00;;;;;;6302630;28;20469;-66
2022/04/04 09:37:30;;;;;;;11.47;10.27;;;8.40;77.80;;;;;;6303003;28;20470;-66
2022/04/04 09:40:35;;;;;;;14.60;11.47;;;8.10;80.40;;;;;;6303791;28;20473;-65
2022/04/04 09:43:53;;;;;;;12.10;10.90;;;8.10;81.70;;;;;;6294038;28;20478;-65
2022/04/04 09:46:56;;;;;;;12.00;10.80;;;8.30;83.00;;;;;;6273148;28;20482;-65
2022/04/04 09:50:00;;;;;;;10.37;9.43;;;8.00;81.30;;;;;;6292314;28;20489;-63
2022/04/04 09:53:05;;;;;;;12.67;11.50;;;7.80;82.00;;;;;;6274954;28;20478;-63
2022/04/04 09:56:09;;;;;;;12.67;11.17;;;7.80;83.70;;;;;;6296749;28;20461;-62
2022/04/04 09:59:14;;;;;;;14.50;12.30;;;7.90;83.90;;;;;;6292374;28;20485;-63
2022/04/04 10:02:18;;;;;;;12.23;11.13;;;8.10;84.00;;;;;;6275196;28;20466;-63
2022/04/04 10:05:22;;;;;;;14.73;10.87;;;8.40;82.60;;;;;;6274787;28;20561;-63
2022/04/04 10:08:28;;;;;;;10.93;9.97;;;8.60;81.50;;;;;;6287941;28;20917;-63
2022/04/04 10:11:34;;;;;;;12.47;11.27;;;8.60;79.40;;;;;;6300091;28;20426;-63
2022/04/04 10:14:38;;;;;;;13.33;12.13;;;8.70;80.00;;;;;;6300082;28;20457;-63
2022/04/04 10:17:42;;;;;;;13.37;11.17;;;8.90;80.10;;;;;;6300093;28;20476;-63
2022/04/04 10:20:52;;;;;;;12.93;11.73;;;9.00;78.60;;;;;;6293330;28;20462;-63
2022/04/04 10:23:59;;;;;;;13.07;11.77;;;8.90;78.60;;;;;;6274926;28;20474;-63
2022/04/04 10:27:03;;;;;;;13.87;11.83;;;8.70;78.20;;;;;;6299427;28;20484;-66
2022/04/04 10:30:09;;;;;;;12.23;10.90;;;8.60;79.20;;;;;;6299630;28;20473;-66
2022/04/04 10:33:19;;;;;;;15.17;13.03;;;9.00;79.40;;;;;;6299898;28;20489;-65
2022/04/04 10:36:25;;;;;;;15.33;12.40;;;9.10;78.60;;;;;;6299808;28;20611;-63
2022/04/04 10:39:42;;;;;;;14.13;12.63;;;9.00;78.50;;;;;;6299125;28;21000;-62
2022/04/04 10:42:46;;;;;;;14.40;12.90;;;9.20;78.30;;;;;;6299345;28;20484;-63
2022/04/04 10:45:55;;;;;;;11.90;10.70;;;9.30;77.10;;;;;;6274729;28;20502;-65
2022/04/04 10:49:03;;;;;;;12.53;11.30;;;9.50;76.80;;;;;;6274663;28;20474;-64
2022/04/04 10:52:10;;;;;;;12.37;11.40;;;10.50;75.00;;;;;;6279655;28;20477;-66
2022/04/04 10:55:54;;;;;;;12.10;10.90;;;11.50;71.30;;;;;;6294327;28;20465;-67
2022/04/04 10:59:28;;;;;;;12.87;11.77;;;11.90;68.00;;;;;;6318194;28;20473;-69
2022/04/04 11:02:33;;;;;;;12.80;11.30;;;11.60;65.70;;;;;;6304026;28;20479;-66
2022/04/04 11:09:11;;;;;;;13.47;12.17;;;10.80;65.90;;;;;;6304764;28;20238;-68
2022/04/04 11:12:15;;;;;;;13.73;11.23;;;10.50;67.60;;;;;;6304160;28;20473;-68
2022/04/04 11:15:39;;;;;;;13.60;12.30;;;10.70;68.30;;;;;;6302591;28;20430;-66
2022/04/04 11:18:52;;;;;;;13.17;11.77;;;10.70;67.90;;;;;;6304111;28;20242;-67
2022/04/04 11:21:56;;;;;;;13.67;12.27;;;10.80;67.40;;;;;;6285985;28;20489;-67
2022/04/04 11:25:03;;;;;;;17.33;13.40;;;10.90;66.60;;;;;;6277239;28;20822;-66
2022/04/04 11:28:07;;;;;;;12.17;11.07;;;10.80;66.60;;;;;;6282019;28;20465;-66
2022/04/04 11:31:13;;;;;;;13.40;12.20;;;10.80;66.80;;;;;;6300819;28;20473;-67
2022/04/04 11:34:17;;;;;;;13.10;11.90;;;10.80;67.00;;;;;;6301459;28;20469;-63
2022/04/04 11:37:21;;;;;;;14.30;12.70;;;10.70;66.30;;;;;;6301311;28;20477;-65
2022/04/04 11:40:29;;;;;;;13.50;12.20;;;10.90;66.80;;;;;;6301390;28;20472;-66
2022/04/04 11:43:33;;;;;;;12.97;11.87;;;11.50;66.60;;;;;;6295349;28;20498;-69
2022/04/04 11:46:37;;;;;;;13.73;12.43;;;11.90;65.30;;;;;;6284067;28;20501;-65
2022/04/04 11:49:43;;;;;;;13.70;12.40;;;12.30;64.00;;;;;;6296125;28;20516;-66
2022/04/04 11:52:48;;;;;;;14.43;13.13;;;13.10;62.80;;;;;;6278177;28;20954;-66
2022/04/04 11:55:51;;;;;;;12.07;10.90;;;13.60;59.80;;;;;;6297794;28;20817;-66
2022/04/04 11:58:56;;;;;;;12.63;11.60;;;13.30;58.00;;;;;;6297880;28;20471;-66
2022/04/04 12:02:03;;;;;;;13.83;12.63;;;13.40;58.70;;;;;;6286856;28;20965;-65
2022/04/04 12:05:12;;;;;;;11.77;10.87;;;13.90;57.60;;;;;;6300633;28;20468;-66
2022/04/04 12:08:15;;;;;;;13.47;12.27;;;14.30;56.90;;;;;;6289193;28;20475;-66
2022/04/04 12:11:28;;;;;;;14.73;12.30;;;14.30;55.70;;;;;;6277898;28;20496;-67
2022/04/04 12:14:36;;;;;;;10.93;10.03;;;14.30;55.90;;;;;;6277700;28;20474;-66
2022/04/04 12:17:40;;;;;;;12.97;11.53;;;14.20;55.70;;;;;;6298424;28;20799;-68
2022/04/04 12:20:45;;;;;;;11.33;10.13;;;13.90;55.60;;;;;;6288974;28;20474;-67
2022/04/04 12:27:12;;;;;;;12.40;11.30;;;14.10;55.40;;;;;;6285289;28;20960;-62
2022/04/04 12:30:15;;;;;;;12.00;10.77;;;14.20;54.70;;;;;;6302970;28;20489;-62
2022/04/04 12:33:21;;;;;;;11.83;10.70;;;14.40;54.50;;;;;;6304675;28;20465;-62
2022/04/04 12:36:29;;;;;;;12.57;11.37;;;14.50;54.20;;;;;;6295238;28;20491;-62
2022/04/04 12:39:33;;;;;;;12.17;11.07;;;14.50;54.70;;;;;;6293068;28;20477;-61
2022/04/04 12:42:36;;;;;;;11.67;10.77;;;14.50;53.90;;;;;;6281902;28;20470;-64
2022/04/04 12:45:46;;;;;;;12.40;11.20;;;14.40;54.30;;;;;;6296003;28;20470;-64
2022/04/04 12:48:51;;;;;;;11.10;10.10;;;13.90;54.50;;;;;;6284727;28;20457;-63
2022/04/04 12:51:58;;;;;;;11.73;10.57;;;13.60;54.70;;;;;;6289607;28;20480;-63
2022/04/04 12:55:12;;;;;;;12.27;11.00;;;13.60;55.00;;;;;;6289480;28;20465;-63
2022/04/04 12:58:18;;;;;;;11.13;10.07;;;13.40;54.70;;;;;;6306207;28;20781;-63
2022/04/04 13:01:21;;;;;;;13.63;12.37;;;13.40;55.70;;;;;;6285572;28;20461;-62
2022/04/04 13:04:26;;;;;;;13.43;12.20;;;13.10;56.60;;;;;;6284717;28;20470;-60
2022/04/04 13:07:30;;;;;;;12.90;11.70;;;13.00;56.90;;;;;;6301577;28;20477;-62
2022/04/04 13:10:33;;;;;;;11.97;10.93;;;12.70;56.60;;;;;;6302272;28;20476;-65
2022/04/04 13:13:56;;;;;;;12.67;11.53;;;12.40;57.80;;;;;;6290740;28;20489;-65
2022/04/04 13:17:04;;;;;;;12.10;10.87;;;12.30;58.50;;;;;;6287116;28;20479;-63
2022/04/04 13:20:12;;;;;;;11.90;10.70;;;11.60;60.00;;;;;;6291988;28;20482;-63
2022/04/04 13:23:16;;;;;;;14.57;11.53;;;11.30;60.40;;;;;;6286460;28;20473;-62
2022/04/04 13:26:20;;;;;;;11.57;10.57;;;11.00;61.30;;;;;;6286233;28;20814;-63
2022/04/04 13:29:23;;;;;;;13.87;12.47;;;10.80;62.70;;;;;;6283324;28;20466;-64
2022/04/04 13:32:26;;;;;;;11.83;10.63;;;10.50;64.10;;;;;;6283470;28;20475;-64
2022/04/04 13:35:30;;;;;;;12.00;10.90;;;10.20;65.90;;;;;;6289085;28;20477;-65
2022/04/04 13:38:35;;;;;;;12.63;11.47;;;10.50;64.90;;;;;;6275033;28;20580;-69
2022/04/04 13:41:39;;;;;;;10.73;9.73;;;10.70;65.60;;;;;;6273047;28;20500;-66
2022/04/04 13:44:42;;;;;;;13.10;11.80;;;11.00;64.70;;;;;;6290154;28;20495;-64
2022/04/04 13:47:45;;;;;;;11.13;10.03;;;11.30;63.90;;;;;;6301277;28;20465;-65
2022/04/04 13:50:50;;;;;;;11.97;10.73;;;11.70;62.50;;;;;;6289374;28;20597;-66
2022/04/04 13:53:56;;;;;;;10.80;9.80;;;12.00;61.60;;;;;;6284864;28;20472;-66
2022/04/04 13:56:59;;;;;;;12.53;11.37;;;12.10;61.40;;;;;;6294290;28;20466;-68
2022/04/04 14:00:04;;;;;;;13.43;12.10;;;11.70;61.80;;;;;;6273918;28;20478;-62
2022/04/04 14:03:10;;;;;;;11.87;10.77;;;11.80;61.60;;;;;;6273918;28;21165;-62
2022/04/04 14:06:15;;;;;;;12.40;11.20;;;11.70;62.10;;;;;;6273844;28;20810;-62
2022/04/04 14:09:18;;;;;;;10.60;9.60;;;11.60;61.60;;;;;;6301095;28;20473;-63
2022/04/04 14:12:22;;;;;;;10.90;9.90;;;11.60;61.60;;;;;;6298182;28;20473;-63
2022/04/04 14:15:26;;;;;;;11.17;10.03;;;11.60;61.40;;;;;;6298892;28;20964;-63
2022/04/04 14:18:30;;;;;;;12.43;11.20;;;11.60;62.30;;;;;;6299228;28;20805;-63
2022/04/04 14:21:34;;;;;;;11.20;10.30;;;11.50;61.60;;;;;;6295365;28;20480;-62
2022/04/04 14:24:37;;;;;;;11.60;10.60;;;11.30;62.50;;;;;;6299112;28;20488;-62
2022/04/04 14:27:41;;;;;;;12.17;10.97;;;11.30;63.20;;;;;;6299791;28;20477;-62
2022/04/04 14:30:46;;;;;;;12.37;11.00;;;11.10;63.70;;;;;;6299322;28;21066;-62
2022/04/04 14:33:53;;;;;;;13.13;11.70;;;11.00;63.90;;;;;;6287801;28;20470;-62
2022/04/04 14:36:58;;;;;;;11.43;10.33;;;10.90;64.70;;;;;;6299678;28;20473;-61
2022/04/04 14:40:01;;;;;;;11.57;10.53;;;10.90;64.90;;;;;;6301194;28;20458;-61
2022/04/04 14:43:04;;;;;;;12.10;10.90;;;10.50;66.40;;;;;;6280293;28;20947;-61
2022/04/04 14:46:08;;;;;;;11.80;10.80;;;10.60;67.00;;;;;;6299311;28;20484;-61
2022/04/04 14:49:12;;;;;;;11.47;10.30;;;10.70;66.50;;;;;;6289492;28;20470;-61
2022/04/04 14:52:16;;;;;;;12.00;10.63;;;10.70;66.10;;;;;;6274582;28;20518;-61
2022/04/04 14:55:20;;;;;;;12.50;11.30;;;10.50;67.30;;;;;;6274765;28;20478;-61
2022/04/04 14:58:24;;;;;;;11.47;10.30;;;10.40;67.70;;;;;;6274649;28;20950;-62
2022/04/04 15:01:27;;;;;;;11.93;10.83;;;10.30;68.90;;;;;;6274675;28;20474;-61
2022/04/04 15:04:30;;;;;;;12.00;10.80;;;10.40;68.50;;;;;;6275171;28;20485;-61
2022/04/04 15:07:35;;;;;;;10.80;9.80;;;10.40;68.50;;;;;;6276163;28;20474;-62
2022/04/04 15:10:38;;;;;;;11.47;10.37;;;10.40;68.50;;;;;;6275397;28;20819;-62
2022/04/04 15:13:48;;;;;;;12.33;11.03;;;10.50;68.90;;;;;;6276035;28;20474;-62
2022/04/04 15:16:51;;;;;;;12.17;11.07;;;10.60;68.90;;;;;;6274317;28;20466;-62
2022/04/04 15:19:54;;;;;;;11.27;10.17;;;10.70;68.80;;;;;;6273517;28;20814;-64
2022/04/04 15:22:59;;;;;;;11.70;10.23;;;10.60;67.80;;;;;;6273384;28;20494;-64
2022/04/04 15:26:02;;;;;;;10.70;9.70;;;10.50;68.40;;;;;;6264590;28;20797;-62
2022/04/04 15:29:06;;;;;;;10.53;8.90;;;10.60;68.90;;;;;;6287270;28;20488;-63
2022/04/04 15:32:10;;;;;;;11.40;10.30;;;10.70;67.70;;;;;;6299082;28;20477;-63
2022/04/04 15:35:13;;;;;;;10.50;9.40;;;10.60;67.40;;;;;;6299232;28;20473;-63
2022/04/04 15:38:18;;;;;;;11.20;9.40;;;10.60;68.10;;;;;;6304184;28;20472;-64
2022/04/04 15:41:27;;;;;;;11.17;10.00;;;10.30;67.90;;;;;;6302813;28;20527;-62
2022/04/04 15:44:33;;;;;;;10.23;9.17;;;10.20;68.70;;;;;;6285621;28;20531;-64
2022/04/04 15:47:37;;;;;;;10.27;9.30;;;10.30;69.40;;;;;;6292607;28;20482;-63
2022/04/04 15:50:40;;;;;;;9.50;8.60;;;10.30;69.00;;;;;;6296603;28;20533;-63
2022/04/04 15:53:44;;;;;;;9.63;8.73;;;10.40;68.80;;;;;;6303049;28;20484;-62
2022/04/04 15:56:47;;;;;;;10.63;9.53;;;10.60;68.70;;;;;;6302632;28;20472;-62
2022/04/04 15:59:50;;;;;;;10.10;9.10;;;10.60;67.90;;;;;;6303204;28;20488;-65
2022/04/04 16:02:54;;;;;;;9.70;8.70;;;10.60;67.80;;;;;;6303015;28;20466;-63
2022/04/04 16:05:58;;;;;;;10.63;9.53;;;10.60;68.30;;;;;;6303601;28;20476;-68
2022/04/04 16:09:04;;;;;;;9.60;8.77;;;10.60;68.00;;;;;;6325216;28;20531;-63